^^
Station Historical Data
Daily Summary for April 26, 2017 Units:  English    Metric   Both
« Previous Day
Next Day »
Daily Weekly Monthly Yearly Custom
  High: Low: Average:
Temperature: 60.9 °F 51.7 °F 56.5 °F
Dew Point: 57.8 °F 50.9 °F 54.8 °F
Humidity: 98% 87% 94%
Wind Speed: 3.0mph 0.0mph 0.5mph
Wind Gust: 10.0mph - -
Wind- - West
Pressure: 29.89 in 29.77 in -
Precipitation: 0.24 in    
Historical Graphs
 
 
Tabular Data for April 26, 2017
Time Temperature Dew Point Pressure Wind Wind Speed Wind Gust Humidity Rainfall Rate (Hourly) Conditions
00:00 53.7 °F 52.6 °F 29.89 in Calm   10.0 mph 96% 0.00 in -RA
00:15 53.8 °F 53.0 °F 29.88 in Calm   4.0 mph 97% 0.01 in -RA
00:30 53.9 °F 53.1 °F 29.88 in NNW 1.0 mph 4.0 mph 97% 0.00 in -RA
00:45 53.9 °F 53.1 °F 29.85 in Calm   5.0 mph 97% 0.01 in -RA
01:00 53.9 °F 53.1 °F 29.85 in Calm   5.0 mph 97% 0.00 in -RA
02:15 53.5 °F 52.7 °F 29.83 in Calm   8.0 mph 97% 0.00 in -RA
02:30 53.5 °F 52.7 °F 29.83 in WNW 1.0 mph 3.0 mph 97% 0.00 in -RA
02:45 53.6 °F 52.8 °F 29.82 in NW 1.0 mph 4.0 mph 97% 0.00 in -RA
03:00 53.7 °F 52.9 °F 29.81 in Calm   2.0 mph 97% 0.01 in -RA
03:15 54.0 °F 53.2 °F 29.81 in NW 1.0 mph 3.0 mph 97% 0.00 in -DZ
03:30 53.7 °F 52.9 °F 29.80 in NW 1.0 mph 4.0 mph 97% 0.01 in -DZ
03:45 52.9 °F 52.1 °F 29.80 in WNW 1.0 mph 5.0 mph 97% 0.00 in -DZ
04:00 52.0 °F 51.2 °F 29.79 in NW 1.0 mph 3.0 mph 97% 0.04 in -DZ
04:15 51.9 °F 51.1 °F 29.78 in Calm   5.0 mph 97% 0.01 in -RA
04:30 51.9 °F 51.1 °F 29.78 in Calm   4.0 mph 97% 0.02 in -RA
04:45 51.9 °F 51.1 °F 29.78 in NNW 1.0 mph 2.0 mph 97% 0.01 in -RA
05:00 52.0 °F 51.2 °F 29.78 in North 1.0 mph 3.0 mph 97% 0.00 in -RA
05:15 52.0 °F 51.2 °F 29.79 in Calm   2.0 mph 97% 0.00 in -RA
05:30 52.1 °F 51.3 °F 29.79 in Calm   2.0 mph 97% 0.04 in -RA
05:45 52.0 °F 51.2 °F 29.79 in Calm   3.0 mph 97% 0.02 in -RA
06:00 51.9 °F 51.1 °F 29.79 in Calm   3.0 mph 97% 0.04 in -RA
06:15 51.7 °F 50.9 °F 29.79 in Calm   3.0 mph 97% 0.00 in -RA
06:30 51.7 °F 50.9 °F 29.79 in NW 1.0 mph 4.0 mph 97% 0.01 in -RA
06:45 51.7 °F 50.9 °F 29.79 in Calm   2.0 mph 97% 0.00 in -RA
07:00 51.9 °F 51.3 °F 29.79 in NNW 1.0 mph 5.0 mph 98% 0.00 in -RA
07:15 52.0 °F 51.5 °F 29.78 in NW 2.0 mph 7.0 mph 98% 0.00 in -RA
07:30 52.2 °F 51.7 °F 29.78 in NW 1.0 mph 5.0 mph 98% 0.00 in -RA
07:45 52.3 °F 51.8 °F 29.78 in Calm   3.0 mph 98% 0.00 in -RA
08:00 52.4 °F 51.9 °F 29.78 in Calm   4.0 mph 98% 0.00 in -RA
08:15 52.8 °F 52.2 °F 29.78 in NNW 1.0 mph 7.0 mph 98% 0.00 in -RA
08:30 53.1 °F 52.6 °F 29.78 in NW 1.0 mph 6.0 mph 98% 0.00 in -RA
08:45 53.0 °F 52.2 °F 29.78 in NNW 2.0 mph 8.0 mph 97% 0.01 in -RA
09:00 53.4 °F 52.8 °F 29.78 in NNW 1.0 mph 7.0 mph 98% 0.00 in -RA
09:15 53.9 °F 53.3 °F 29.79 in NNW 2.0 mph 5.0 mph 98% 0.00 in OVC
09:30 53.9 °F 53.1 °F 29.79 in NNW 1.0 mph 5.0 mph 97% 0.00 in OVC
09:45 54.1 °F 53.3 °F 29.79 in NNW 1.0 mph 5.0 mph 97% 0.00 in OVC
10:00 54.7 °F 53.8 °F 29.78 in NNW 1.0 mph 9.0 mph 97% 0.00 in OVC
10:15 55.0 °F 54.2 °F 29.79 in NNW 1.0 mph 9.0 mph 97% 0.00 in OVC
10:30 55.3 °F 54.5 °F 29.79 in NNW 1.0 mph 8.0 mph 97% 0.00 in OVC
11:00 56.3 °F 55.2 °F 29.79 in North 3.0 mph 10.0 mph 96% 0.00 in OVC
11:15 57.0 °F 55.6 °F 29.79 in NE 1.0 mph 8.0 mph 95% 0.00 in OVC
11:30 58.4 °F 56.7 °F 29.79 in NNW 1.0 mph 5.0 mph 94% 0.00 in OVC
11:45 59.4 °F 57.0 °F 29.78 in Calm   6.0 mph 92% 0.00 in OVC
12:00 60.7 °F 57.4 °F 29.78 in Calm   6.0 mph 89% 0.00 in OVC
12:15 60.3 °F 56.8 °F 29.78 in North 2.0 mph 9.0 mph 88% 0.00 in OVC
12:30 60.2 °F 56.6 °F 29.78 in North 1.0 mph 6.0 mph 88% 0.00 in OVC
12:45 60.6 °F 57.1 °F 29.79 in NNW 1.0 mph 4.0 mph 88% 0.00 in OVC
13:00 60.8 °F 56.9 °F 29.79 in NE 1.0 mph 5.0 mph 87% 0.00 in OVC
13:15 60.9 °F 57.0 °F 29.78 in NW 1.0 mph 3.0 mph 87% 0.00 in OVC
13:45 60.9 °F 57.0 °F 29.79 in WNW 1.0 mph 3.0 mph 87% 0.00 in OVC
14:00 59.8 °F 56.2 °F 29.79 in Calm   4.0 mph 88% 0.00 in OVC
14:15 59.7 °F 56.2 °F 29.79 in Calm   4.0 mph 88% 0.00 in OVC
14:30 60.5 °F 56.9 °F 29.79 in Calm   3.0 mph 88% 0.00 in OVC
14:45 60.1 °F 56.5 °F 29.79 in NW 1.0 mph 4.0 mph 88% 0.00 in OVC
15:00 60.0 °F 56.4 °F 29.79 in West 2.0 mph 3.0 mph 88% 0.00 in OVC
15:15 60.1 °F 56.5 °F 29.79 in Calm   4.0 mph 88% 0.00 in OVC
15:30 60.0 °F 56.7 °F 29.78 in Calm   4.0 mph 89% 0.00 in OVC
15:45 60.1 °F 56.5 °F 29.78 in NW 1.0 mph 3.0 mph 88% 0.00 in OVC
16:00 60.4 °F 57.1 °F 29.78 in Calm   2.0 mph 89% 0.00 in OVC
16:15 60.5 °F 57.3 °F 29.78 in NNE 1.0 mph 4.0 mph 89% 0.00 in OVC
16:30 60.1 °F 57.5 °F 29.77 in North 1.0 mph 4.0 mph 91% 0.00 in OVC
16:45 60.0 °F 57.3 °F 29.77 in Calm   3.0 mph 91% 0.00 in OVC
17:00 60.1 °F 57.5 °F 29.77 in Calm   2.0 mph 91% 0.00 in OVC
17:15 60.1 °F 57.8 °F 29.77 in Calm   2.0 mph 92% 0.00 in OVC
17:30 59.8 °F 57.2 °F 29.78 in SSW 1.0 mph 3.0 mph 91% 0.00 in OVC
17:45 59.9 °F 57.3 °F 29.79 in Calm   2.0 mph 91% 0.00 in OVC
18:00 59.8 °F 57.1 °F 29.79 in Calm   1.0 mph 91% 0.00 in OVC
18:15 59.7 °F 57.0 °F 29.80 in WSW 1.0 mph 2.0 mph 91% 0.00 in BKN
18:45 58.6 °F 56.6 °F 29.81 in Calm   2.0 mph 93% 0.00 in BKN
19:00 58.8 °F 56.8 °F 29.81 in Calm   1.0 mph 93% 0.00 in BKN
19:15 58.8 °F 56.8 °F 29.81 in Calm     93% 0.00 in OVC
19:30 58.9 °F 56.9 °F 29.81 in Calm     93% 0.00 in OVC
19:45 58.9 °F 57.2 °F 29.82 in Calm     94% 0.00 in OVC
20:00 58.8 °F 57.1 °F 29.82 in Calm   1.0 mph 94% 0.00 in OVC
20:15 58.8 °F 57.1 °F 29.82 in Calm   1.0 mph 94% 0.00 in OVC
20:30 58.7 °F 57.0 °F 29.82 in Calm     94% 0.00 in OVC
20:45 58.6 °F 56.9 °F 29.82 in Calm     94% 0.00 in OVC
21:00 58.7 °F 56.9 °F 29.83 in Calm     94% 0.00 in OVC
21:15 58.6 °F 56.9 °F 29.83 in Calm     94% 0.00 in OVC
21:30 58.7 °F 56.9 °F 29.84 in Calm     94% 0.00 in OVC
21:45 58.7 °F 57.0 °F 29.84 in Calm     94% 0.00 in OVC
22:00 58.7 °F 57.0 °F 29.84 in Calm     94% 0.00 in OVC
22:15 58.4 °F 56.7 °F 29.85 in Calm   2.0 mph 94% 0.00 in OVC
22:30 58.2 °F 56.8 °F 29.85 in Calm   1.0 mph 95% 0.00 in OVC
22:45 58.3 °F 56.9 °F 29.85 in Calm     95% 0.00 in OVC
23:00 58.3 °F 56.9 °F 29.85 in Calm   1.0 mph 95% 0.00 in OVC
23:15 58.2 °F 56.8 °F 29.85 in Calm   1.0 mph 95% 0.00 in OVC
23:30 58.1 °F 56.6 °F 29.86 in Calm   1.0 mph 95% 0.00 in OVC
TarryTown NY Weather
Compliments of Weather Underground - 1.5 mb